Time;durP1;ratioP1;P1;durP2;ratioP2;P2;SDS_P1;SDS_P2;PMS_P1;PMS_P2;Temp;Humidity;BMP_temperature;BMP_pressure;BME280_temperature;BME280_humidity;BME280_pressure;Samples;Min_cycle;Max_cycle;Signal;HPM_P1;HPM_P2
2022/05/03 00:00:50;;;;;;;;;38.00;32.50;;;;;14.23;44.25;101145.44;5040402;28;46345;-53
2022/05/03 00:03:26;;;;;;;;;39.75;32.75;;;;;14.18;44.98;101154.44;5027706;28;46156;-50
2022/05/03 00:06:13;;;;;;;;;34.75;32.00;;;;;14.14;45.03;101153.69;5040050;28;46932;-52
2022/05/03 00:09:08;;;;;;;;;43.50;33.00;;;;;14.09;44.94;101144.22;5030847;28;45503;-55
2022/05/03 00:11:49;;;;;;;;;44.50;32.25;;;;;14.07;44.68;101149.53;5027316;28;62957;-55
2022/05/03 00:14:21;;;;;;;;;37.00;27.75;;;;;14.04;45.49;101145.25;5034258;28;46381;-54
2022/05/03 00:16:46;;;;;;;;;40.75;29.50;;;;;14.02;45.19;101143.56;5038641;28;45423;-53
2022/05/03 00:19:12;;;;;;;;;39.00;33.25;;;;;14.01;45.41;101148.00;5039541;28;64096;-54
2022/05/03 00:21:37;;;;;;;;;40.50;31.00;;;;;13.98;45.00;101139.34;5033563;28;61338;-53
2022/05/03 00:24:04;;;;;;;;;38.50;31.00;;;;;13.95;45.73;101135.06;5040118;28;47134;-53
2022/05/03 00:26:29;;;;;;;;;39.50;29.50;;;;;13.97;45.52;101138.50;5035345;28;45739;-53
2022/05/03 00:28:56;;;;;;;;;41.75;31.75;;;;;13.95;45.34;101134.19;5027401;28;45321;-54
2022/05/03 00:31:21;;;;;;;;;45.25;33.50;;;;;13.92;45.32;101129.03;5037483;28;45378;-54
2022/05/03 00:33:46;;;;;;;;;39.75;32.75;;;;;13.83;45.45;101125.81;5028374;28;45946;-55
2022/05/03 00:36:12;;;;;;;;;37.75;32.00;;;;;13.84;45.76;101135.41;5037653;28;66380;-54
2022/05/03 00:38:38;;;;;;;;;40.50;34.00;;;;;13.80;45.33;101125.91;5029974;28;56872;-54
2022/05/03 00:41:04;;;;;;;;;32.75;29.75;;;;;13.79;45.43;101126.84;5039464;28;45453;-54
2022/05/03 00:44:00;;;;;;;;;37.25;32.00;;;;;13.76;45.38;101126.06;5030270;28;46186;-54
2022/05/03 00:46:28;;;;;;;;;45.75;34.00;;;;;13.71;45.44;101123.59;5038170;28;45393;-55
2022/05/03 00:49:02;;;;;;;;;37.00;30.50;;;;;13.66;45.52;101123.72;5033452;28;46485;-53
2022/05/03 00:51:42;;;;;;;;;42.00;32.00;;;;;13.62;45.42;101124.75;5039404;28;45375;-54
2022/05/03 00:54:18;;;;;;;;;39.25;30.75;;;;;13.59;45.93;101122.22;5039907;28;46113;-54
2022/05/03 00:57:20;;;;;;;;;42.25;34.25;;;;;13.53;46.29;101118.94;5038898;28;45311;-53
2022/05/03 01:00:01;;;;;;;;;36.75;32.00;;;;;13.49;46.23;101120.81;5033786;28;45352;-52
2022/05/03 01:02:42;;;;;;;;;40.50;33.50;;;;;13.44;45.63;101125.38;5030538;28;45383;-54
2022/05/03 01:05:11;;;;;;;;;44.50;35.00;;;;;13.40;45.95;101127.25;5038548;28;45362;-54
2022/05/03 01:07:42;;;;;;;;;36.00;33.75;;;;;13.37;46.21;101132.59;5030300;28;45371;-54
2022/05/03 01:10:38;;;;;;;;;37.00;32.25;;;;;13.32;46.09;101123.16;5022366;28;45326;-53
2022/05/03 01:13:22;;;;;;;;;36.00;28.75;;;;;13.27;46.15;101123.25;5028788;28;45418;-55
2022/05/03 01:15:56;;;;;;;;;35.50;31.25;;;;;13.23;46.29;101126.91;5039152;28;45500;-53
2022/05/03 01:18:25;;;;;;;;;41.50;32.75;;;;;13.21;46.19;101119.06;5034961;28;45477;-54
2022/05/03 01:21:02;;;;;;;;;39.25;31.25;;;;;13.17;46.38;101120.03;5038981;28;45234;-54
2022/05/03 01:23:50;;;;;;;;;44.75;32.25;;;;;13.18;46.75;101123.56;5035642;28;45436;-55
2022/05/03 01:26:34;;;;;;;;;33.25;31.50;;;;;13.16;46.78;101120.13;5038715;28;46124;-54
2022/05/03 01:29:24;;;;;;;;;36.75;27.75;;;;;13.13;46.71;101122.84;5025210;28;45350;-55
2022/05/03 01:31:55;;;;;;;;;37.25;30.75;;;;;13.09;46.74;101117.66;5040403;28;45462;-54
2022/05/03 01:34:21;;;;;;;;;33.75;29.25;;;;;13.08;46.88;101117.72;5031037;28;45473;-54
2022/05/03 01:37:08;;;;;;;;;33.75;28.50;;;;;13.06;46.93;101111.66;5029911;28;50856;-54
2022/05/03 01:40:11;;;;;;;;;33.50;29.75;;;;;13.03;47.05;101115.25;5041952;28;45347;-52
2022/05/03 01:42:54;;;;;;;;;39.75;31.75;;;;;12.99;46.98;101113.59;5040458;28;45335;-54
2022/05/03 01:45:29;;;;;;;;;42.25;26.00;;;;;12.98;47.29;101111.00;5038103;28;45317;-53
2022/05/03 01:47:58;;;;;;;;;43.75;29.75;;;;;12.96;47.01;101110.22;5036733;28;46712;-51
2022/05/03 01:50:44;;;;;;;;;33.50;29.50;;;;;12.93;47.42;101107.69;5039280;28;45846;-53
2022/05/03 01:53:14;;;;;;;;;37.50;30.00;;;;;12.90;46.89;101106.00;5036831;28;45572;-52
2022/05/03 01:55:58;;;;;;;;;39.75;30.50;;;;;12.90;47.27;101106.84;5028123;28;45410;-52
2022/05/03 01:58:55;;;;;;;;;39.25;30.00;;;;;12.91;47.07;101105.13;5033680;28;46136;-52
2022/05/03 02:01:20;;;;;;;;;42.00;29.00;;;;;12.91;47.52;101094.59;5029752;28;45455;-54
2022/05/03 02:03:57;;;;;;;;;37.33;31.33;;;;;12.92;47.62;101091.06;5033840;28;45462;-53
2022/05/03 02:06:32;;;;;;;;;39.25;31.25;;;;;12.92;47.51;101096.31;5024384;28;45393;-53
2022/05/03 02:09:06;;;;;;;;;35.00;30.25;;;;;12.90;47.23;101090.25;5035102;28;45415;-51
2022/05/03 02:11:59;;;;;;;;;35.75;25.75;;;;;12.91;47.32;101094.59;5037536;28;46054;-52
2022/05/03 02:14:44;;;;;;;;;33.00;26.75;;;;;12.87;47.47;101098.22;5038868;28;45500;-52
2022/05/03 02:17:34;;;;;;;;;33.25;28.25;;;;;12.86;47.13;101101.75;5040734;28;45360;-54
2022/05/03 02:20:18;;;;;;;;;29.00;23.25;;;;;12.83;47.50;101100.06;5030019;28;46386;-53
2022/05/03 02:23:10;;;;;;;;;39.75;31.00;;;;;12.79;47.30;101097.59;5037321;28;45334;-51
2022/05/03 02:25:36;;;;;;;;;31.75;28.75;;;;;12.78;46.92;101096.72;5041831;28;45430;-53
2022/05/03 02:28:19;;;;;;;;;38.75;29.75;;;;;12.73;47.40;101104.75;5032509;28;45298;-52
2022/05/03 02:30:45;;;;;;;;;32.50;25.75;;;;;12.71;47.59;101103.06;5034146;28;45444;-51
2022/05/03 02:33:43;;;;;;;;;41.75;30.75;;;;;12.67;47.41;101099.69;5035175;28;45879;-54
2022/05/03 02:36:13;;;;;;;;;33.25;27.75;;;;;12.65;47.20;101111.16;5003886;28;45483;-54
2022/05/03 02:39:04;;;;;;;;;38.50;30.00;;;;;12.63;47.88;101105.09;5031682;28;45391;-53
2022/05/03 02:41:38;;;;;;;;;35.75;28.50;;;;;12.63;47.66;101107.72;5041282;28;45392;-52
2022/05/03 02:44:03;;;;;;;;;33.75;30.00;;;;;12.64;48.08;101110.28;5033704;28;45857;-54
2022/05/03 02:46:48;;;;;;;;;36.75;32.00;;;;;12.65;47.79;101106.75;5041189;28;45338;-54
2022/05/03 02:49:18;;;;;;;;;39.75;29.75;;;;;12.64;47.59;101106.78;5041809;28;45304;-54
2022/05/03 02:51:51;;;;;;;;;32.25;29.00;;;;;12.61;47.87;101105.13;5040923;28;46283;-54
2022/05/03 02:54:34;;;;;;;;;34.50;28.25;;;;;12.63;47.69;101112.97;5034773;28;45369;-54
2022/05/03 02:57:19;;;;;;;;;28.25;24.00;;;;;12.62;48.04;101103.34;5036217;28;45467;-52
2022/05/03 03:03:21;;;;;;;;;31.75;27.75;;;;;12.62;48.06;101113.84;5039961;28;45873;-52
2022/05/03 03:06:01;;;;;;;;;41.00;32.25;;;;;12.62;47.91;101103.34;5039849;28;45349;-53
2022/05/03 03:08:28;;;;;;;;;37.75;31.00;;;;;12.65;47.70;101111.16;5030770;28;45478;-54
2022/05/03 03:11:04;;;;;;;;;36.00;29.00;;;;;12.64;48.21;101112.03;5040380;28;45514;-50
2022/05/03 03:13:32;;;;;;;;;48.00;38.75;;;;;12.63;47.69;101105.09;5034973;28;45289;-52
2022/05/03 03:15:58;;;;;;;;;35.75;28.75;;;;;12.62;48.24;101106.81;5035019;28;45221;-51
2022/05/03 03:18:24;;;;;;;;;34.25;31.75;;;;;12.61;47.91;101102.50;5031367;28;45389;-53
2022/05/03 03:20:54;;;;;;;;;41.25;30.25;;;;;12.60;47.82;101108.66;5039504;28;45461;-53
2022/05/03 03:23:20;;;;;;;;;41.00;30.50;;;;;12.59;47.89;101103.44;5037329;28;45329;-54
2022/05/03 03:25:46;;;;;;;;;44.25;33.75;;;;;12.58;47.82;101109.59;5040753;28;45521;-53
2022/05/03 03:28:12;;;;;;;;;32.75;28.25;;;;;12.60;48.17;101105.16;5046790;28;45488;-52
2022/05/03 03:30:38;;;;;;;;;39.50;31.75;;;;;12.57;47.69;101097.38;5038831;28;45435;-53
2022/05/03 03:33:04;;;;;;;;;41.25;32.75;;;;;12.53;48.00;101101.84;5033043;28;47241;-51
2022/05/03 03:35:29;;;;;;;;;41.25;32.75;;;;;12.51;48.01;101101.03;5034814;28;45526;-51
2022/05/03 03:37:57;;;;;;;;;31.00;26.25;;;;;12.46;47.99;101093.28;5019138;28;45477;-50
2022/05/03 03:40:23;;;;;;;;;38.75;27.00;;;;;12.45;47.89;101096.00;5034190;28;45356;-51
2022/05/03 03:42:49;;;;;;;;;37.75;29.75;;;;;12.47;48.42;101096.81;5019374;28;45455;-53
2022/05/03 03:45:15;;;;;;;;;43.75;31.25;;;;;12.44;48.44;101095.09;5034616;28;45328;-53
2022/05/03 03:47:41;;;;;;;;;43.75;33.50;;;;;12.45;48.51;101096.00;5037679;28;45346;-54
2022/05/03 03:50:07;;;;;;;;;34.50;25.50;;;;;12.44;48.32;101089.00;5035517;28;45333;-52
2022/05/03 03:52:34;;;;;;;;;41.50;32.25;;;;;12.45;48.50;101096.00;5038856;28;46104;-53
2022/05/03 03:54:59;;;;;;;;;38.25;30.75;;;;;12.45;48.11;101090.75;5040862;28;45186;-53
2022/05/03 03:57:25;;;;;;;;;36.00;31.75;;;;;12.40;48.10;101095.25;5038770;28;45379;-51
2022/05/03 03:59:50;;;;;;;;;45.00;36.00;;;;;12.39;48.29;101101.41;5035320;28;45319;-53
2022/05/03 04:02:16;;;;;;;;;39.25;35.25;;;;;12.34;48.42;101096.25;5031380;28;46189;-53
2022/05/03 04:04:42;;;;;;;;;48.50;32.75;;;;;12.31;48.15;101104.25;5037148;28;67541;-54
2022/05/03 04:07:07;;;;;;;;;32.25;29.00;;;;;12.26;48.41;101101.75;5033968;28;45328;-53
2022/05/03 04:09:33;;;;;;;;;35.50;28.75;;;;;12.23;48.58;101100.97;5037284;28;63093;-53
2022/05/03 04:12:00;;;;;;;;;39.50;29.75;;;;;12.22;48.36;101101.88;5034516;28;45694;-51
2022/05/03 04:14:25;;;;;;;;;32.75;27.50;;;;;12.19;48.38;101104.59;5036824;28;45860;-50
2022/05/03 04:16:51;;;;;;;;;36.50;30.25;;;;;12.20;48.35;101098.41;5036095;28;45177;-51
2022/05/03 04:19:16;;;;;;;;;42.50;33.00;;;;;12.18;48.87;101108.97;5034036;28;45490;-50
2022/05/03 04:21:42;;;;;;;;;40.50;34.50;;;;;12.15;48.84;101101.19;5037127;28;46059;-51
2022/05/03 04:24:07;;;;;;;;;46.75;34.00;;;;;12.14;48.32;101096.84;5047148;28;70428;-50
2022/05/03 04:26:33;;;;;;;;;41.25;31.50;;;;;12.12;48.57;101102.13;5035303;28;45427;-54
2022/05/03 04:29:01;;;;;;;;;43.00;33.25;;;;;12.11;48.63;101113.53;5027832;28;61862;-53
2022/05/03 04:31:27;;;;;;;;;44.75;35.50;;;;;12.11;48.59;101105.66;5037543;28;45435;-54
2022/05/03 04:33:56;;;;;;;;;41.50;31.75;;;;;12.08;48.32;101110.13;5028408;28;45881;-53
2022/05/03 04:36:22;;;;;;;;;43.50;32.50;;;;;12.06;48.87;101106.69;5035144;28;45449;-51
2022/05/03 04:38:48;;;;;;;;;37.50;29.50;;;;;12.03;49.10;101110.25;5025796;28;45495;-54
2022/05/03 04:41:13;;;;;;;;;37.75;31.00;;;;;12.04;49.11;101109.34;5039590;28;46049;-53
2022/05/03 04:43:39;;;;;;;;;38.50;32.25;;;;;12.05;49.12;101112.84;5031788;28;45415;-53
2022/05/03 04:46:04;;;;;;;;;38.25;32.75;;;;;12.06;48.66;101120.66;5038935;28;57584;-53
2022/05/03 04:48:30;;;;;;;;;36.00;31.50;;;;;12.03;49.16;101114.66;5032161;28;64214;-52
2022/05/03 04:50:55;;;;;;;;;40.50;31.50;;;;;12.01;48.98;101105.97;5039561;28;45315;-53
2022/05/03 04:53:22;;;;;;;;;37.75;33.25;;;;;11.97;49.09;101105.19;5033674;28;58342;-54
2022/05/03 04:55:48;;;;;;;;;38.00;31.75;;;;;11.95;49.03;101105.22;5039605;28;45346;-50
2022/05/03 04:58:13;;;;;;;;;38.00;32.25;;;;;11.92;49.23;101107.06;5054424;28;46679;-52
2022/05/03 05:00:38;;;;;;;;;45.75;36.00;;;;;11.89;49.04;101107.97;5037019;28;63358;-51
2022/05/03 05:03:04;;;;;;;;;44.25;32.25;;;;;11.88;49.51;101106.25;5030760;28;45334;-53
2022/05/03 05:05:29;;;;;;;;;35.50;28.50;;;;;11.90;49.56;101109.72;5039387;28;45791;-53
2022/05/03 05:07:54;;;;;;;;;35.50;32.75;;;;;11.91;49.55;101111.44;5030129;28;60781;-50
2022/05/03 05:10:23;;;;;;;;;42.50;33.25;;;;;11.94;49.31;101115.75;5038484;28;68153;-51
2022/05/03 05:12:48;;;;;;;;;40.25;34.00;;;;;11.94;49.60;101116.59;5029978;28;45930;-53
2022/05/03 05:15:14;;;;;;;;;52.50;34.50;;;;;11.94;49.59;101115.75;5040003;28;45210;-53
2022/05/03 05:17:39;;;;;;;;;39.50;31.75;;;;;11.95;49.64;101112.22;5032679;28;45221;-53
2022/05/03 05:20:05;;;;;;;;;48.25;33.50;;;;;11.98;49.67;101120.00;5027777;28;64190;-53
2022/05/03 05:22:30;;;;;;;;;48.50;34.00;;;;;12.00;49.49;101122.59;5034250;28;45455;-53
2022/05/03 05:24:56;;;;;;;;;45.50;32.75;;;;;12.00;49.43;101126.06;5039012;28;62969;-53
2022/05/03 05:27:21;;;;;;;;;46.00;34.50;;;;;12.00;49.73;101122.59;5033514;28;62552;-52
2022/05/03 05:29:46;;;;;;;;;47.25;36.50;;;;;12.02;49.78;101126.88;5027677;28;45318;-54
2022/05/03 05:32:12;;;;;;;;;44.00;33.25;;;;;12.05;49.51;101128.56;5036495;28;45565;-52
2022/05/03 05:34:37;;;;;;;;;41.75;33.00;;;;;12.04;49.21;101132.97;5028285;28;62074;-52
2022/05/03 05:37:03;;;;;;;;;42.25;35.00;;;;;12.04;49.56;101132.09;5037513;28;65009;-52
2022/05/03 05:39:28;;;;;;;;;40.50;28.75;;;;;12.03;49.25;101139.09;5029897;28;46339;-50
2022/05/03 05:41:55;;;;;;;;;38.75;32.25;;;;;12.03;49.78;101141.72;5038304;28;46501;-53
2022/05/03 05:44:21;;;;;;;;;42.00;34.75;;;;;12.05;49.75;101133.81;5030929;28;45284;-53
2022/05/03 05:46:46;;;;;;;;;37.00;30.50;;;;;12.06;49.61;101136.41;5038552;28;45398;-53
2022/05/03 05:49:11;;;;;;;;;46.00;35.25;;;;;12.06;49.39;101132.94;5031155;28;69033;-54
2022/05/03 05:51:37;;;;;;;;;41.25;32.75;;;;;12.04;49.57;101125.09;5037837;28;65473;-52
2022/05/03 05:54:02;;;;;;;;;43.25;33.75;;;;;12.05;49.70;101133.81;5032657;28;55748;-53
2022/05/03 05:56:28;;;;;;;;;45.25;36.00;;;;;12.06;49.91;101140.81;5037913;28;52652;-53
2022/05/03 05:58:54;;;;;;;;;45.75;33.00;;;;;12.06;49.90;101141.66;5033983;28;47239;-51
2022/05/03 06:01:28;;;;;;;;;43.50;34.00;;;;;12.10;49.21;101143.28;5038596;28;45307;-53
2022/05/03 06:03:54;;;;;;;;;41.50;34.25;;;;;12.12;49.94;101143.25;5031302;28;45338;-53
2022/05/03 06:06:19;;;;;;;;;47.25;32.25;;;;;12.19;49.69;101151.81;5038408;28;47174;-51
2022/05/03 06:08:44;;;;;;;;;43.50;33.00;;;;;12.26;49.35;101150.75;5029333;28;71416;-53
2022/05/03 06:11:10;;;;;;;;;42.25;32.75;;;;;12.28;49.23;101152.41;5039340;28;69514;-53
2022/05/03 06:13:35;;;;;;;;;44.50;35.00;;;;;12.31;49.28;101164.59;5033274;28;45368;-54
2022/05/03 06:16:10;;;;;;;;;41.00;34.25;;;;;12.34;49.62;101159.25;5040596;28;45867;-53
2022/05/03 06:18:36;;;;;;;;;41.00;33.00;;;;;12.38;49.66;101166.16;5033382;28;46062;-53
2022/05/03 06:21:04;;;;;;;;;44.25;35.25;;;;;12.42;49.67;101164.31;5039975;28;45424;-54
2022/05/03 06:23:30;;;;;;;;;45.75;32.25;;;;;12.43;48.95;101166.91;5039992;28;45278;-54
2022/05/03 06:25:55;;;;;;;;;46.50;34.25;;;;;12.42;49.42;101164.31;5040887;27;45487;-50
2022/05/03 06:28:20;;;;;;;;;35.50;31.25;;;;;12.39;49.35;101165.25;5029756;28;69426;-51
2022/05/03 06:30:46;;;;;;;;;43.75;34.25;;;;;12.41;49.42;101171.34;5035132;28;65970;-52
2022/05/03 06:33:11;;;;;;;;;36.25;32.25;;;;;12.36;49.29;101167.97;5034655;28;62770;-51
2022/05/03 06:35:37;;;;;;;;;51.25;34.25;;;;;12.35;49.67;101177.59;5052023;28;65952;-53
2022/05/03 06:38:02;;;;;;;;;34.00;31.25;;;;;12.37;49.17;101174.06;5036208;28;67316;-53
2022/05/03 06:40:28;;;;;;;;;45.00;34.50;;;;;12.36;49.52;101175.84;5036603;28;58692;-50
2022/05/03 06:42:54;;;;;;;;;48.50;35.25;;;;;12.36;49.24;101183.72;5038018;28;45305;-53
2022/05/03 06:45:20;;;;;;;;;43.00;33.75;;;;;12.35;49.53;101182.84;5037234;28;45521;-51
2022/05/03 06:47:48;;;;;;;;;29.50;22.75;;;;;12.35;49.39;101177.59;5037452;28;47153;-53
2022/05/03 06:50:13;;;;;;;;;42.00;31.75;;;;;12.34;49.59;101182.88;5037416;28;45908;-52
2022/05/03 06:52:38;;;;;;;;;44.50;33.75;;;;;12.34;49.45;101178.50;5039770;28;45505;-53
2022/05/03 06:55:05;;;;;;;;;48.25;37.75;;;;;12.33;49.35;101171.53;5036993;28;45379;-52
2022/05/03 06:57:31;;;;;;;;;41.50;34.00;;;;;12.35;49.51;101171.50;5040312;28;46166;-50
2022/05/03 06:59:56;;;;;;;;;41.00;33.00;;;;;12.40;49.43;101180.09;5035240;28;45349;-53
2022/05/03 07:02:21;;;;;;;;;48.25;35.25;;;;;12.43;49.23;101181.75;5041177;28;45374;-53
2022/05/03 07:04:47;;;;;;;;;46.50;33.25;;;;;12.46;49.68;101176.44;5041539;28;45272;-53
2022/05/03 07:07:13;;;;;;;;;43.75;35.25;;;;;12.51;49.63;101185.03;5040958;28;46183;-52
2022/05/03 07:09:39;;;;;;;;;38.25;33.50;;;;;12.52;49.10;101185.00;5041395;28;45787;-53
2022/05/03 07:12:06;;;;;;;;;47.00;35.00;;;;;12.54;49.72;101187.59;5040680;28;45292;-54
2022/05/03 07:14:31;;;;;;;;;52.25;34.75;;;;;12.59;49.63;101183.09;5040376;28;45347;-53
2022/05/03 07:16:57;;;;;;;;;46.25;34.75;;;;;12.65;49.32;101187.28;5040080;28;68152;-53
2022/05/03 07:24:50;;;;;;;;;51.25;39.00;;;;;12.81;48.96;101185.09;5041331;28;45352;-52
2022/05/03 07:27:15;;;;;;;;;41.00;32.25;;;;;12.82;49.27;101184.16;5040235;28;45391;-53
2022/05/03 07:29:41;;;;;;;;;42.00;32.50;;;;;12.87;49.06;101190.16;5041178;28;45421;-50
2022/05/03 07:32:06;;;;;;;;;51.00;38.00;;;;;12.88;48.74;101184.84;5039776;28;63560;-54
2022/05/03 07:34:32;;;;;;;;;40.25;33.00;;;;;12.91;49.05;101186.53;5040359;28;67085;-53
2022/05/03 07:36:57;;;;;;;;;49.00;34.75;;;;;12.97;48.97;101191.59;5040395;28;45453;-53
2022/05/03 07:39:22;;;;;;;;;39.50;32.25;;;;;13.04;48.79;101192.28;5040066;28;69289;-51
2022/05/03 07:41:48;;;;;;;;;47.00;34.75;;;;;13.10;48.85;101189.47;5039369;28;63561;-53
2022/05/03 07:44:13;;;;;;;;;38.00;31.75;;;;;13.20;48.75;101195.31;5040244;28;66119;-53
2022/05/03 07:46:38;;;;;;;;;41.25;32.25;;;;;13.26;48.52;101195.13;5040129;28;45427;-52
2022/05/03 07:49:04;;;;;;;;;38.50;32.00;;;;;13.38;48.43;101196.53;5040178;28;65192;-51
2022/05/03 07:51:29;;;;;;;;;42.50;33.50;;;;;13.54;48.44;101197.78;5039587;28;61811;-50
2022/05/03 07:53:55;;;;;;;;;39.25;32.00;;;;;13.73;47.94;101202.44;5040171;28;62605;-53
2022/05/03 07:56:20;;;;;;;;;43.25;33.75;;;;;13.86;47.92;101199.38;5039601;28;62372;-53
2022/05/03 07:58:45;;;;;;;;;40.00;34.00;;;;;14.00;47.96;101198.88;5040327;28;50000;-53
2022/05/03 08:01:11;;;;;;;;;42.50;34.75;;;;;14.13;47.43;101199.34;5038524;28;45463;-54
2022/05/03 08:03:37;;;;;;;;;44.50;32.50;;;;;14.28;46.88;101202.34;5040588;28;45482;-52
2022/05/03 08:06:02;;;;;;;;;53.50;35.75;;;;;14.40;47.16;101207.19;5039962;28;45296;-52
2022/05/03 08:08:28;;;;;;;;;47.75;32.00;;;;;14.53;46.74;101202.34;5040488;28;45285;-54
2022/05/03 08:10:53;;;;;;;;;43.00;33.25;;;;;14.63;46.67;101197.66;5040077;28;45512;-52
2022/05/03 08:13:18;;;;;;;;;40.50;31.50;;;;;14.74;46.49;101201.59;5039891;28;52940;-54
2022/05/03 08:15:44;;;;;;;;;42.75;31.75;;;;;14.86;46.56;101205.56;5039874;28;47114;-53
2022/05/03 08:18:09;;;;;;;;;34.25;29.25;;;;;14.98;46.31;101202.47;5040284;28;48617;-53
2022/05/03 08:20:35;;;;;;;;;42.75;33.25;;;;;15.05;46.24;101202.22;5039302;28;62641;-50
2022/05/03 08:23:00;;;;;;;;;31.50;28.75;;;;;15.12;45.77;101196.66;5039633;28;45327;-54
2022/05/03 08:25:26;;;;;;;;;31.50;27.00;;;;;15.28;45.72;101201.31;5037370;28;46232;-54
2022/05/03 08:27:52;;;;;;;;;37.75;30.50;;;;;15.42;45.71;101200.78;5047212;28;45892;-53
2022/05/03 08:30:17;;;;;;;;;39.50;31.00;;;;;15.55;45.14;101197.59;5040539;28;45354;-54
2022/05/03 08:32:42;;;;;;;;;36.00;31.00;;;;;15.65;45.14;101195.47;5039532;28;45626;-52
2022/05/03 08:35:08;;;;;;;;;38.25;29.75;;;;;15.81;45.04;101197.47;5040332;28;45507;-52
2022/05/03 08:43:07;;;;;;;;;32.50;28.50;;;;;16.10;44.60;101194.47;5038242;28;45411;-52
2022/05/03 08:45:33;;;;;;;;;35.00;26.50;;;;;16.11;44.12;101196.19;5038628;28;66229;-50
2022/05/03 08:48:00;;;;;;;;;32.25;27.50;;;;;16.26;44.34;101207.88;5037869;28;61961;-52
2022/05/03 08:50:25;;;;;;;;;34.50;27.75;;;;;16.35;43.44;101203.13;5039586;28;45269;-53
2022/05/03 08:52:54;;;;;;;;;33.75;29.00;;;;;16.43;43.81;101207.16;5039843;28;45404;-53
2022/05/03 08:55:21;;;;;;;;;29.25;25.00;;;;;16.49;43.62;101204.22;5039383;28;46189;-54
2022/05/03 08:57:47;;;;;;;;;37.50;29.75;;;;;16.51;43.30;101207.66;5039212;28;45402;-52
2022/05/03 09:00:13;;;;;;;;;33.25;26.50;;;;;16.57;43.44;101203.88;5040056;28;45162;-53
2022/05/03 09:02:42;;;;;;;;;34.00;28.00;;;;;16.60;43.02;101210.81;5039231;28;45395;-52
2022/05/03 09:05:08;;;;;;;;;32.75;28.75;;;;;16.72;42.64;101196.22;5039906;28;46030;-53
2022/05/03 09:07:36;;;;;;;;;36.50;25.00;;;;;16.92;42.79;101201.47;5037829;28;45403;-52
2022/05/03 09:10:14;;;;;;;;;30.50;27.25;;;;;17.21;42.13;101202.75;5039924;28;45287;-54
2022/05/03 09:12:41;;;;;;;;;31.25;28.75;;;;;17.61;42.02;101202.63;5037400;28;45379;-52
2022/05/03 09:15:07;;;;;;;;;28.75;25.00;;;;;18.13;41.10;101199.16;5039689;28;46335;-53
2022/05/03 09:17:40;;;;;;;;;32.50;24.25;;;;;19.13;39.52;101193.91;5038896;28;45783;-53
2022/05/03 09:25:48;;;;;;;;;28.75;24.50;;;;;23.36;34.99;101195.22;5039001;28;45354;-54
2022/05/03 09:28:13;;;;;;;;;28.50;27.50;;;;;24.34;34.32;101204.81;5038373;28;67905;-54
2022/05/03 09:30:50;;;;;;;;;30.25;27.00;;;;;25.15;33.04;101195.72;5038905;28;45580;-54
2022/05/03 09:33:20;;;;;;;;;34.00;25.75;;;;;26.01;32.17;101197.63;5039483;28;45542;-50
2022/05/03 09:35:46;;;;;;;;;27.50;22.00;;;;;26.80;30.48;101192.56;5038693;28;46338;-53
2022/05/03 09:38:11;;;;;;;;;25.75;22.50;;;;;27.55;31.22;101192.16;5039310;28;45273;-52
2022/05/03 09:40:46;;;;;;;;;20.50;20.00;;;;;28.17;29.64;101192.69;5037202;28;53288;-53
2022/05/03 09:43:12;;;;;;;;;25.50;20.00;;;;;28.64;29.29;101198.13;5039005;28;45462;-53
2022/05/03 09:45:38;;;;;;;;;25.00;20.00;;;;;29.10;27.57;101190.91;5038713;28;46359;-55
2022/05/03 09:48:04;;;;;;;;;25.75;19.00;;;;;29.60;27.28;101184.19;5042654;28;45429;-55
2022/05/03 09:50:29;;;;;;;;;27.00;20.75;;;;;30.20;26.38;101188.91;5042252;28;45313;-53
2022/05/03 09:52:55;;;;;;;;;19.25;17.25;;;;;30.87;26.83;101188.25;5042672;28;45413;-54
2022/05/03 09:55:30;;;;;;;;;20.25;19.00;;;;;31.46;26.04;101196.34;5042205;28;45374;-54
2022/05/03 09:57:58;;;;;;;;;22.25;21.00;;;;;31.65;25.19;101189.81;5041592;28;45257;-53
2022/05/03 10:00:23;;;;;;;;;29.50;23.00;;;;;31.65;25.01;101183.56;5041138;28;45252;-54
2022/05/03 10:02:48;;;;;;;;;20.50;20.50;;;;;31.68;23.93;101185.91;5039987;28;65850;-54
2022/05/03 10:05:20;;;;;;;;;24.50;22.50;;;;;31.94;24.63;101192.00;5041330;28;46915;-53
2022/05/03 10:07:45;;;;;;;;;25.00;21.00;;;;;32.22;23.80;101183.50;5042006;28;45213;-53
2022/05/03 10:10:12;;;;;;;;;25.75;20.00;;;;;32.70;22.66;101176.25;5041315;28;45664;-53
2022/05/03 10:12:37;;;;;;;;;19.50;18.50;;;;;33.20;22.36;101171.47;5040072;28;45414;-50
2022/05/03 10:15:03;;;;;;;;;18.00;14.00;;;;;33.66;22.69;101178.75;5042669;28;46108;-53
2022/05/03 10:22:42;;;;;;;;;19.25;16.75;;;;;34.65;21.45;101180.47;5023498;28;45262;-50
2022/05/03 10:25:08;;;;;;;;;19.50;17.75;;;;;34.91;21.67;101171.81;5041109;28;45938;-52
2022/05/03 10:27:52;;;;;;;;;24.50;22.25;;;;;34.96;21.18;101181.09;5039124;28;45533;-52
2022/05/03 10:30:20;;;;;;;;;15.50;14.00;;;;;35.02;19.82;101170.47;5041426;28;45374;-52
2022/05/03 10:33:05;;;;;;;;;18.75;17.50;;;;;35.33;20.01;101168.34;5041779;28;45494;-53
2022/05/03 10:35:33;;;;;;;;;17.25;16.50;;;;;35.89;19.51;101164.88;5040469;28;46297;-53
2022/05/03 10:37:59;;;;;;;;;21.25;17.50;;;;;36.41;19.67;101165.41;5040811;28;45774;-51
2022/05/03 10:40:38;;;;;;;;;20.00;18.50;;;;;36.85;18.67;101166.06;5041502;28;45236;-51
2022/05/03 10:43:09;;;;;;;;;21.25;16.50;;;;;37.16;17.85;101170.09;5039913;28;45364;-53
2022/05/03 10:46:13;;;;;;;;;15.25;14.00;;;;;37.22;18.65;101164.69;5041286;28;45292;-52
2022/05/03 10:48:42;;;;;;;;;16.00;14.25;;;;;37.39;18.75;101154.19;5010253;28;45812;-51
2022/05/03 10:51:08;;;;;;;;;19.50;15.50;;;;;37.26;18.08;101165.13;5041435;28;45278;-52
2022/05/03 10:53:35;;;;;;;;;16.75;16.25;;;;;37.05;17.88;101158.75;5041755;28;45241;-50
2022/05/03 10:56:04;;;;;;;;;16.00;14.00;;;;;36.97;16.28;101155.38;5040697;28;46388;-52
2022/05/03 10:58:31;;;;;;;;;16.75;16.00;;;;;36.17;17.13;101153.06;5040584;28;45260;-53
2022/05/03 11:01:09;;;;;;;;;20.75;17.00;;;;;34.56;18.08;101158.81;5041355;28;46020;-51
2022/05/03 11:03:39;;;;;;;;;17.00;15.00;;;;;32.87;19.23;101149.94;5041579;28;45348;-52
2022/05/03 11:06:20;;;;;;;;;21.50;17.00;;;;;31.51;19.81;101152.59;5041101;28;46252;-52
2022/05/03 11:08:57;;;;;;;;;21.75;16.75;;;;;30.37;20.91;101152.06;5041578;28;45268;-52
2022/05/03 11:11:49;;;;;;;;;19.50;15.50;;;;;29.38;21.74;101149.63;5040626;28;45705;-49
2022/05/03 11:14:24;;;;;;;;;14.00;14.00;;;;;29.15;22.52;101132.06;5034018;28;45479;-53
2022/05/03 11:17:01;;;;;;;;;15.25;14.25;;;;;29.75;21.99;101140.47;5040841;28;46348;-53
2022/05/03 11:19:26;;;;;;;;;16.25;13.75;;;;;30.06;21.93;101141.72;5041283;28;45220;-53
2022/05/03 11:21:52;;;;;;;;;19.00;17.50;;;;;29.96;21.91;101145.53;5035620;28;61754;-52
2022/05/03 11:24:26;;;;;;;;;19.00;12.50;;;;;29.82;22.06;101142.44;5036700;28;66142;-51
2022/05/03 11:26:53;;;;;;;;;18.00;15.25;;;;;29.81;22.11;101138.03;5040616;28;45391;-54
2022/05/03 11:29:19;;;;;;;;;16.50;14.50;;;;;29.94;22.41;101129.50;5041277;28;45299;-51
2022/05/03 11:31:48;;;;;;;;;15.50;13.75;;;;;30.25;21.77;101137.13;5040579;28;45570;-53
2022/05/03 11:34:14;;;;;;;;;13.75;11.50;;;;;30.83;21.45;101136.38;5041252;28;45523;-53
2022/05/03 11:36:50;;;;;;;;;17.00;17.00;;;;;31.33;21.02;101128.41;5040675;28;46359;-51
2022/05/03 11:39:15;;;;;;;;;18.50;17.25;;;;;31.79;19.91;101123.34;5041110;28;45245;-51
2022/05/03 11:41:44;;;;;;;;;14.50;13.50;;;;;32.07;20.27;101125.69;5040448;28;45487;-52
2022/05/03 11:44:09;;;;;;;;;18.00;14.50;;;;;32.35;19.66;101132.34;5041071;27;45292;-53
2022/05/03 11:46:37;;;;;;;;;15.25;13.25;;;;;32.41;19.96;101122.69;5040247;28;47309;-53